createdAt,value
2019-03-06T00:00:08.725Z,83.88
2019-03-06T00:02:45.473Z,83.75
2019-03-06T00:05:16.742Z,83.88
2019-03-06T00:07:47.650Z,83.90
2019-03-06T00:10:23.895Z,83.89
2019-03-06T00:12:54.365Z,83.98
2019-03-06T00:15:25.498Z,84.02
2019-03-06T00:17:55.767Z,83.94
2019-03-06T00:20:26.035Z,83.97
2019-03-06T00:22:56.561Z,84.04
2019-03-06T00:25:27.193Z,84.15
2019-03-06T00:27:57.496Z,83.95
2019-03-06T00:30:28.261Z,84.04
2019-03-06T00:32:58.814Z,84.22
2019-03-06T00:35:32.865Z,84.28
2019-03-06T00:38:03.646Z,84.36
2019-03-06T00:41:02.999Z,84.33
2019-03-06T00:43:33.387Z,84.13
2019-03-06T00:46:04.313Z,84.26
2019-03-06T00:48:35.089Z,84.12
2019-03-06T00:51:05.705Z,84.06
2019-03-06T00:53:36.287Z,84.01
2019-03-06T00:56:06.491Z,83.95
2019-03-06T00:58:36.913Z,84.10
2019-03-06T01:01:07.106Z,84.20
2019-03-06T01:03:37.738Z,84.37
2019-03-06T01:06:08.583Z,84.49
2019-03-06T01:08:39.801Z,84.62
2019-03-06T01:11:09.974Z,84.77
2019-03-06T01:13:39.951Z,84.83
2019-03-06T01:16:10.534Z,84.46
2019-03-06T01:18:40.924Z,84.53
2019-03-06T01:21:12.149Z,84.27
2019-03-06T01:23:42.704Z,84.32
2019-03-06T01:26:13.546Z,84.13
2019-03-06T01:28:43.977Z,83.89
2019-03-06T01:31:14.399Z,83.78
2019-03-06T01:34:23.643Z,83.77
2019-03-06T01:37:09.347Z,83.71
2019-03-06T01:40:08.130Z,83.71
2019-03-06T01:42:51.381Z,83.79
2019-03-06T01:45:21.458Z,83.52
2019-03-06T01:47:51.897Z,83.27
2019-03-06T01:50:22.795Z,83.11
2019-03-06T01:52:53.267Z,83.33
2019-03-06T01:55:23.684Z,83.63
2019-03-06T01:57:54.002Z,83.81
2019-03-06T02:00:24.781Z,84.05
2019-03-06T02:02:55.647Z,84.44
2019-03-06T02:05:26.714Z,84.78
2019-03-06T02:07:57.554Z,85.03
2019-03-06T02:10:28.750Z,85.22
2019-03-06T02:12:59.429Z,85.64
2019-03-06T02:15:29.845Z,85.99
2019-03-06T02:18:00.459Z,86.23
2019-03-06T02:20:30.951Z,86.47
2019-03-06T02:23:01.087Z,86.57
2019-03-06T02:25:31.413Z,86.66
2019-03-06T02:28:01.799Z,86.74
2019-03-06T02:30:32.010Z,86.95
2019-03-06T02:33:01.420Z,87.04
2019-03-06T02:35:31.707Z,87.24
2019-03-06T02:38:01.187Z,87.49
2019-03-06T02:40:30.445Z,87.68
2019-03-06T02:43:00.205Z,87.88
2019-03-06T02:45:29.949Z,88.00
2019-03-06T02:47:59.900Z,88.13
2019-03-06T02:50:29.325Z,88.24
2019-03-06T02:52:58.447Z,88.32
2019-03-06T02:55:27.406Z,88.44
2019-03-06T02:58:18.749Z,88.57
2019-03-06T03:01:22.231Z,88.65
2019-03-06T03:04:04.929Z,88.75
2019-03-06T03:06:39.702Z,88.81
2019-03-06T03:09:16.069Z,88.95
2019-03-06T03:11:46.174Z,89.01
2019-03-06T03:14:16.378Z,88.95
2019-03-06T03:16:46.478Z,89.12
2019-03-06T03:19:16.583Z,89.18
2019-03-06T03:21:46.709Z,89.28
2019-03-06T03:24:16.720Z,89.31
2019-03-06T03:26:46.664Z,89.49
2019-03-06T03:29:16.953Z,89.44
2019-03-06T03:31:46.935Z,89.46
2019-03-06T03:34:17.464Z,89.69
2019-03-06T03:36:48.588Z,89.60
2019-03-06T03:39:18.786Z,89.75
2019-03-06T03:41:49.352Z,89.74
2019-03-06T03:44:19.934Z,89.72
2019-03-06T03:46:50.302Z,89.87
2019-03-06T03:49:20.260Z,89.82
2019-03-06T03:51:50.280Z,90.02
2019-03-06T03:54:20.498Z,90.08
2019-03-06T03:56:50.577Z,90.08
2019-03-06T03:59:20.590Z,89.92
2019-03-06T04:01:50.836Z,88.35
2019-03-06T04:04:21.439Z,87.75
2019-03-06T04:06:52.227Z,87.78
2019-03-06T04:09:23.891Z,86.88
2019-03-06T04:11:54.327Z,88.00
2019-03-06T04:14:24.938Z,86.01
2019-03-06T04:16:55.546Z,87.27
2019-03-06T04:19:27.761Z,87.46
2019-03-06T04:21:58.977Z,87.87
2019-03-06T04:24:29.629Z,88.21
2019-03-06T04:27:00.005Z,88.18
2019-03-06T04:29:30.938Z,88.52
2019-03-06T04:32:01.344Z,87.91
2019-03-06T04:34:31.597Z,87.28
2019-03-06T04:37:03.846Z,86.98
2019-03-06T04:39:34.302Z,86.45
2019-03-06T04:42:04.800Z,86.47
2019-03-06T04:44:34.955Z,86.06
2019-03-06T04:47:06.287Z,86.32
2019-03-06T04:49:37.209Z,85.73
2019-03-06T04:52:07.493Z,85.69
2019-03-06T04:54:39.044Z,83.87
2019-03-06T04:57:10.977Z,85.22
2019-03-06T04:59:42.261Z,85.52
2019-03-06T05:02:13.655Z,84.09
2019-03-06T05:04:44.844Z,84.71
2019-03-06T05:07:15.321Z,84.37
2019-03-06T05:09:45.562Z,83.37
2019-03-06T05:12:16.125Z,82.00
2019-03-06T05:14:46.673Z,82.92
2019-03-06T05:17:26.426Z,82.53
2019-03-06T05:19:58.422Z,83.50
2019-03-06T05:22:28.998Z,82.86
2019-03-06T05:24:59.920Z,81.35
2019-03-06T05:27:30.889Z,80.89
2019-03-06T05:30:03.391Z,81.13
2019-03-06T05:32:36.360Z,81.39
2019-03-06T05:35:39.180Z,80.82
2019-03-06T05:38:34.114Z,79.86
2019-03-06T05:41:03.750Z,79.97
2019-03-06T05:43:35.086Z,77.53
2019-03-06T05:46:06.167Z,77.72
2019-03-06T05:48:37.444Z,77.15
2019-03-06T05:51:08.100Z,76.71
2019-03-06T05:53:39.761Z,78.31
2019-03-06T05:56:10.482Z,77.74
2019-03-06T05:58:40.975Z,78.55
2019-03-06T06:01:11.569Z,79.16
2019-03-06T06:03:42.259Z,77.80
2019-03-06T06:06:12.859Z,77.70
2019-03-06T06:08:43.497Z,76.54
2019-03-06T06:11:13.985Z,77.12
2019-03-06T06:13:48.261Z,78.14
2019-03-06T06:16:22.389Z,75.35
2019-03-06T06:18:53.009Z,75.41
2019-03-06T06:21:53.131Z,74.31
2019-03-06T06:24:26.564Z,74.20
2019-03-06T06:26:58.945Z,75.44
2019-03-06T06:29:31.590Z,73.47
2019-03-06T06:32:02.288Z,72.32
2019-03-06T06:34:32.896Z,71.93
2019-03-06T06:37:03.735Z,72.81
2019-03-06T06:39:38.355Z,72.31
2019-03-06T06:42:09.836Z,72.67
2019-03-06T06:44:40.381Z,71.74
2019-03-06T06:47:10.813Z,71.54
2019-03-06T06:49:42.769Z,69.72
2019-03-06T06:52:46.311Z,71.01
2019-03-06T06:55:55.571Z,70.81
2019-03-06T06:59:03.540Z,70.01
2019-03-06T07:02:14.446Z,71.09
2019-03-06T07:05:22.036Z,70.59
2019-03-06T07:08:08.845Z,69.90
2019-03-06T07:10:47.256Z,71.48
2019-03-06T07:13:29.825Z,71.59
2019-03-06T07:16:21.900Z,71.24
2019-03-06T07:19:15.340Z,73.26
2019-03-06T07:22:21.068Z,72.72
2019-03-06T07:25:17.675Z,74.35
2019-03-06T07:28:14.163Z,74.07
2019-03-06T07:31:07.306Z,73.68
2019-03-06T07:33:50.923Z,72.19
2019-03-06T07:36:43.005Z,72.80
2019-03-06T07:39:25.346Z,65.29
2019-03-06T07:42:25.525Z,69.15
2019-03-06T07:46:06.034Z,67.29
2019-03-06T07:48:57.975Z,66.61
2019-03-06T07:52:00.414Z,66.83
2019-03-06T07:54:39.167Z,63.93
2019-03-06T07:57:38.157Z,65.67
2019-03-06T08:00:17.557Z,66.26
2019-03-06T08:03:21.229Z,62.62
2019-03-06T08:05:52.018Z,63.12
2019-03-06T08:08:23.342Z,63.78
2019-03-06T08:10:54.946Z,64.92
2019-03-06T08:13:47.160Z,66.99
2019-03-06T08:16:28.715Z,66.46
2019-03-06T08:19:13.225Z,68.02
2019-03-06T08:21:53.613Z,69.04
2019-03-06T08:24:40.192Z,68.84
2019-03-06T08:27:11.441Z,65.85
2019-03-06T08:29:43.860Z,68.53
2019-03-06T08:32:22.380Z,69.39
2019-03-06T08:34:53.537Z,68.96
2019-03-06T08:37:24.331Z,69.46
2019-03-06T08:39:55.309Z,70.25
2019-03-06T08:42:25.876Z,70.09
2019-03-06T08:44:56.465Z,70.66
2019-03-06T08:47:47.557Z,70.26
2019-03-06T08:50:35.054Z,69.86
2019-03-06T08:53:36.108Z,66.71
2019-03-06T08:56:23.052Z,67.44
2019-03-06T08:59:02.675Z,63.48
2019-03-06T09:02:00.702Z,65.02
2019-03-06T09:04:36.673Z,66.04
2019-03-06T09:07:35.514Z,62.93
2019-03-06T09:10:28.669Z,65.31
2019-03-06T09:13:21.960Z,62.99
2019-03-06T09:16:27.931Z,64.95
2019-03-06T09:19:16.715Z,64.43
2019-03-06T09:21:55.968Z,64.92
2019-03-06T09:24:44.244Z,65.74
2019-03-06T09:30:36.957Z,66.55
2019-03-06T09:33:12.811Z,66.66
2019-03-06T09:39:30.545Z,64.92
2019-03-06T09:42:34.609Z,63.83
2019-03-06T09:45:32.723Z,65.00
2019-03-06T09:48:27.918Z,62.31
2019-03-06T09:51:18.659Z,62.38
2019-03-06T09:54:04.721Z,63.07
2019-03-06T09:57:04.846Z,63.27
2019-03-06T09:59:55.552Z,63.56
2019-03-06T10:03:00.819Z,61.48
2019-03-06T10:05:42.121Z,61.28
2019-03-06T10:08:31.455Z,60.57
2019-03-06T10:11:20.120Z,60.42
2019-03-06T10:14:23.477Z,62.38
2019-03-06T10:17:00.258Z,59.81
2019-03-06T10:19:53.403Z,58.91
2019-03-06T10:22:24.699Z,57.33
2019-03-06T10:28:06.187Z,59.08
2019-03-06T10:30:33.769Z,58.16
2019-03-06T10:33:06.349Z,58.28
2019-03-06T10:35:39.741Z,60.68
2019-03-06T10:38:16.510Z,59.06
2019-03-06T10:40:44.286Z,61.15
2019-03-06T10:43:19.359Z,62.29
2019-03-06T10:45:50.839Z,62.27
2019-03-06T10:48:25.746Z,61.37
2019-03-06T10:50:56.227Z,57.06
2019-03-06T10:53:29.928Z,57.95
2019-03-06T10:56:01.839Z,59.42
2019-03-06T10:58:35.065Z,55.84
2019-03-06T11:01:07.645Z,58.36
2019-03-06T11:03:47.041Z,59.97
2019-03-06T11:06:19.382Z,58.58
2019-03-06T11:08:50.786Z,59.80
2019-03-06T11:11:21.904Z,59.69
2019-03-06T11:13:53.922Z,59.92
2019-03-06T11:16:25.268Z,61.58
2019-03-06T11:18:56.854Z,57.35
2019-03-06T11:21:28.627Z,58.76
2019-03-06T11:24:00.879Z,58.62
2019-03-06T11:26:34.044Z,56.80
2019-03-06T11:29:06.884Z,58.35
2019-03-06T11:31:41.640Z,57.36
2019-03-06T11:34:16.033Z,53.70
2019-03-06T11:36:55.218Z,57.32
2019-03-06T11:39:28.816Z,57.36
2019-03-06T11:42:02.559Z,56.99
2019-03-06T11:44:35.387Z,57.08
2019-03-06T11:47:06.754Z,54.68
2019-03-06T11:49:37.395Z,57.23
2019-03-06T11:52:11.223Z,55.70
2019-03-06T11:54:42.829Z,55.74
2019-03-06T11:57:16.067Z,56.27
2019-03-06T11:59:47.351Z,56.72
2019-03-06T12:02:18.880Z,56.08
2019-03-06T12:04:50.627Z,55.43
2019-03-06T12:07:22.680Z,54.48
2019-03-06T12:09:55.983Z,53.87
2019-03-06T12:12:26.921Z,54.03
2019-03-06T12:14:57.655Z,54.13
2019-03-06T12:17:27.895Z,55.45
2019-03-06T12:20:07.542Z,55.42
2019-03-06T12:22:32.468Z,54.51
2019-03-06T12:25:06.073Z,54.62
2019-03-06T12:27:38.064Z,49.85
2019-03-06T12:30:10.156Z,52.01
2019-03-06T12:32:42.460Z,50.98
2019-03-06T12:35:13.242Z,51.71
2019-03-06T12:37:47.143Z,51.25
2019-03-06T12:40:17.423Z,49.17
2019-03-06T12:42:48.074Z,52.25
2019-03-06T12:45:21.499Z,51.56
2019-03-06T12:47:55.386Z,49.61
2019-03-06T12:50:26.526Z,47.90
2019-03-06T12:52:58.763Z,50.23
2019-03-06T12:55:29.473Z,48.84
2019-03-06T12:58:00.209Z,47.70
2019-03-06T13:00:31.019Z,45.91
2019-03-06T13:03:02.902Z,48.68
2019-03-06T13:05:35.409Z,48.46
2019-03-06T13:08:05.647Z,47.61
2019-03-06T13:10:36.378Z,51.82
2019-03-06T13:13:07.947Z,48.64
2019-03-06T13:15:38.138Z,44.99
2019-03-06T13:18:11.000Z,44.26
2019-03-06T13:20:42.195Z,47.66
2019-03-06T13:23:12.565Z,41.48
2019-03-06T13:25:43.396Z,43.11
2019-03-06T13:28:15.059Z,42.99
2019-03-06T13:30:49.191Z,44.18
2019-03-06T13:33:48.365Z,43.99
2019-03-06T13:45:33.799Z,42.25
2019-03-06T13:48:05.063Z,45.34
2019-03-06T13:50:46.457Z,46.45
2019-03-06T14:30:36.947Z,48.87
2019-03-06T14:33:53.120Z,47.09
2019-03-06T14:36:33.387Z,45.40
2019-03-06T14:39:26.374Z,46.63
2019-03-06T14:42:02.040Z,47.16
2019-03-06T14:44:33.766Z,47.77
2019-03-06T14:47:05.572Z,48.43
2019-03-06T14:49:39.523Z,49.61
2019-03-06T14:52:10.229Z,48.60
2019-03-06T14:54:47.496Z,48.71
2019-03-06T14:57:19.979Z,50.06
2019-03-06T14:59:50.686Z,49.16
2019-03-06T15:02:24.260Z,49.68
2019-03-06T15:07:48.546Z,51.21
2019-03-06T15:10:21.725Z,50.19
2019-03-06T15:12:54.038Z,51.69
2019-03-06T15:15:28.815Z,50.43
2019-03-06T15:18:10.140Z,47.18
2019-03-06T15:20:47.220Z,47.48
2019-03-06T15:23:18.595Z,49.28
2019-03-06T15:28:56.865Z,47.11
2019-03-06T15:31:46.464Z,49.05
2019-03-06T15:37:24.941Z,51.48
2019-03-06T15:39:56.692Z,52.20
2019-03-06T15:42:27.207Z,52.98
2019-03-06T15:44:58.457Z,52.34
2019-03-06T15:47:33.592Z,49.59
2019-03-06T15:50:01.876Z,50.58
2019-03-06T15:52:32.641Z,48.76
2019-03-06T15:55:03.313Z,50.21
2019-03-06T15:57:34.839Z,50.01
2019-03-06T16:00:13.005Z,52.07
2019-03-06T16:02:44.342Z,52.08
2019-03-06T16:05:16.498Z,50.40
2019-03-06T16:07:47.877Z,52.13
2019-03-06T16:10:20.182Z,51.52
2019-03-06T16:12:50.897Z,48.91
2019-03-06T16:15:21.685Z,49.30
2019-03-06T16:17:52.495Z,49.84
2019-03-06T16:20:23.416Z,50.56
2019-03-06T16:22:54.407Z,48.17
2019-03-06T16:25:36.400Z,49.80
2019-03-06T16:28:00.041Z,49.25
2019-03-06T16:30:31.025Z,51.52
2019-03-06T16:33:12.935Z,52.46
2019-03-06T16:35:46.060Z,49.78
2019-03-06T16:38:16.909Z,52.92
2019-03-06T16:40:49.873Z,51.97
2019-03-06T16:43:21.879Z,53.10
2019-03-06T16:45:53.203Z,51.93
2019-03-06T16:48:24.338Z,50.96
2019-03-06T16:50:54.976Z,50.23
2019-03-06T16:53:25.634Z,51.92
2019-03-06T16:55:56.068Z,50.68
2019-03-06T16:58:26.741Z,51.59
2019-03-06T17:00:57.833Z,51.65
2019-03-06T17:03:28.464Z,50.62
2019-03-06T17:05:59.687Z,52.34
2019-03-06T17:08:36.184Z,50.00
2019-03-06T17:11:11.085Z,48.36
2019-03-06T17:13:42.530Z,48.92
2019-03-06T17:16:20.311Z,51.78
2019-03-06T17:19:03.423Z,50.73
2019-03-06T17:21:46.957Z,53.54
2019-03-06T17:24:20.183Z,52.41
2019-03-06T17:26:51.491Z,52.18
2019-03-06T17:29:22.734Z,52.98
2019-03-06T17:31:54.377Z,52.94
2019-03-06T17:34:25.363Z,53.33
2019-03-06T17:36:56.635Z,53.61
2019-03-06T17:39:27.506Z,54.31
2019-03-06T17:41:58.168Z,55.13
2019-03-06T17:44:28.929Z,52.87
2019-03-06T17:46:59.766Z,54.19
2019-03-06T17:49:37.056Z,52.95
2019-03-06T17:55:14.135Z,51.15
2019-03-06T17:57:59.059Z,52.95
2019-03-06T18:07:12.210Z,52.71
2019-03-06T18:09:50.627Z,50.66
2019-03-06T18:12:37.188Z,52.05
2019-03-06T18:15:18.256Z,52.40
2019-03-06T18:18:10.084Z,53.70
2019-03-06T18:23:57.874Z,52.27
2019-03-06T18:26:28.470Z,51.84
2019-03-06T18:28:59.771Z,51.30
2019-03-06T18:31:30.767Z,51.35
2019-03-06T18:34:03.914Z,51.64
2019-03-06T18:36:34.622Z,52.86
2019-03-06T18:39:13.082Z,52.72
2019-03-06T18:41:44.241Z,52.95
2019-03-06T18:44:19.714Z,53.21
2019-03-06T18:46:52.866Z,53.68
2019-03-06T18:49:24.557Z,52.53
2019-03-06T18:51:55.829Z,54.51
2019-03-06T18:54:25.845Z,55.08
2019-03-06T18:56:56.785Z,54.83
2019-03-06T18:59:29.791Z,55.15
2019-03-06T19:02:00.157Z,54.65
2019-03-06T19:04:31.507Z,54.58
2019-03-06T19:07:01.855Z,55.29
2019-03-06T19:09:33.205Z,53.58
2019-03-06T19:12:05.045Z,54.03
2019-03-06T19:14:37.816Z,52.56
2019-03-06T19:17:40.604Z,54.44
2019-03-06T19:26:43.594Z,53.55
2019-03-06T19:29:18.119Z,55.91
2019-03-06T19:31:48.768Z,55.59
2019-03-06T19:34:19.912Z,56.50
2019-03-06T19:36:51.365Z,56.40
2019-03-06T19:39:24.979Z,54.09
2019-03-06T19:41:59.656Z,55.79
2019-03-06T19:44:37.037Z,56.58
2019-03-06T19:47:09.765Z,56.45
2019-03-06T19:49:45.832Z,55.98
2019-03-06T19:52:17.848Z,55.74
2019-03-06T19:54:51.122Z,55.62
2019-03-06T19:57:21.528Z,56.43
2019-03-06T19:59:52.220Z,56.51
2019-03-06T20:02:23.516Z,56.43
2019-03-06T20:04:54.331Z,54.96
2019-03-06T20:07:26.479Z,56.08
2019-03-06T20:09:57.822Z,56.73
2019-03-06T20:12:30.267Z,56.83
2019-03-06T20:15:14.160Z,56.88
2019-03-06T20:17:46.789Z,57.24
2019-03-06T20:20:28.291Z,57.09
2019-03-06T20:23:06.337Z,57.17
2019-03-06T20:25:40.973Z,57.13
2019-03-06T20:28:16.142Z,57.63
2019-03-06T20:30:46.750Z,57.89
2019-03-06T20:33:18.105Z,58.04
2019-03-06T20:35:49.796Z,58.04
2019-03-06T20:38:20.546Z,58.13
2019-03-06T20:40:51.603Z,58.37
2019-03-06T20:43:22.194Z,58.67
2019-03-06T20:45:53.523Z,57.90
2019-03-06T20:48:25.270Z,58.69
2019-03-06T20:50:56.073Z,58.88
2019-03-06T20:53:26.713Z,58.66
2019-03-06T20:55:58.358Z,58.97
2019-03-06T20:58:28.702Z,59.19
2019-03-06T21:01:00.020Z,59.25
2019-03-06T21:03:31.099Z,59.08
2019-03-06T21:06:02.117Z,58.84
2019-03-06T21:08:33.113Z,59.08
2019-03-06T21:11:07.299Z,59.18
2019-03-06T21:13:37.944Z,59.05
2019-03-06T21:16:08.459Z,59.06
2019-03-06T21:18:43.543Z,59.14
2019-03-06T21:21:16.276Z,59.51
2019-03-06T21:23:48.287Z,59.43
2019-03-06T21:30:14.167Z,58.52
2019-03-06T21:32:44.424Z,58.13
2019-03-06T21:35:15.295Z,58.46
2019-03-06T21:37:48.089Z,58.63
2019-03-06T21:40:18.423Z,58.81
2019-03-06T21:42:48.713Z,59.07
2019-03-06T21:45:20.203Z,59.30
2019-03-06T21:47:51.090Z,59.49
2019-03-06T21:50:21.802Z,59.02
2019-03-06T21:52:52.401Z,58.23
2019-03-06T21:55:22.528Z,57.99
2019-03-06T21:57:54.233Z,57.88
2019-03-06T22:00:25.650Z,57.83
2019-03-06T22:02:57.002Z,57.83
2019-03-06T22:05:28.711Z,57.65
2019-03-06T22:07:59.651Z,57.00
2019-03-06T22:10:30.558Z,56.89
2019-03-06T22:13:01.029Z,57.05
2019-03-06T22:15:31.318Z,56.70
2019-03-06T22:18:01.337Z,57.05
2019-03-06T22:20:32.155Z,57.46
2019-03-06T22:23:02.793Z,57.82
2019-03-06T22:25:33.166Z,57.88
2019-03-06T22:28:04.085Z,57.77
2019-03-06T22:30:35.497Z,57.98
2019-03-06T22:33:06.355Z,58.29
2019-03-06T22:35:36.625Z,58.42
2019-03-06T22:38:07.073Z,58.71
2019-03-06T22:40:37.406Z,58.67
2019-03-06T22:43:08.228Z,58.84
2019-03-06T22:45:39.338Z,59.08
2019-03-06T22:48:10.029Z,59.26
2019-03-06T22:50:41.399Z,58.57
2019-03-06T22:53:12.163Z,59.52
2019-03-06T22:55:44.309Z,59.72
2019-03-06T22:58:14.606Z,59.68
2019-03-06T23:01:14.440Z,59.48
2019-03-06T23:03:45.100Z,59.42
2019-03-06T23:06:16.066Z,59.56
2019-03-06T23:08:46.618Z,59.58
2019-03-06T23:11:17.603Z,59.30
2019-03-06T23:13:48.767Z,59.83
2019-03-06T23:16:20.626Z,59.88
2019-03-06T23:18:51.639Z,60.13
2019-03-06T23:21:22.237Z,60.37
2019-03-06T23:23:52.674Z,60.62
2019-03-06T23:26:23.665Z,60.60
2019-03-06T23:28:53.963Z,60.55
2019-03-06T23:31:24.468Z,60.46
2019-03-06T23:33:54.643Z,60.86
2019-03-06T23:36:25.071Z,61.00
2019-03-06T23:38:57.965Z,60.92
2019-03-06T23:41:27.946Z,60.77
2019-03-06T23:43:57.864Z,61.11
2019-03-06T23:46:29.199Z,61.16
2019-03-06T23:48:59.333Z,61.17
2019-03-06T23:51:34.232Z,61.58
2019-03-06T23:54:04.124Z,61.51
2019-03-06T23:56:34.628Z,61.13
2019-03-06T23:59:04.793Z,61.16
